UAL166E EDDM-LTFM
Flight info
| Callsign | UAL166E |
|---|---|
| Flight time | N/A |
| Altitude | 29000 |
| Route | ROTAX3S ROTAX L603 LATLO DCT OBEDI/N0495F330 DCT BEDOX/N0479F390 DCT ADULA DCT ETIDA T390 RILEX |
| Aircraft | B78X/H-SDE1E2E3FGHIJ2J3J4J5M1RWXY/LB1D1 |
Departure
| Time | 2026-05-06 17:48 |
|---|---|
| Airport | Munich Airport (EDDM) |
Arrival
| Time | N/A |
|---|---|
| Airport | İstanbul Airport (LTFM) |
| Time | Latitude | Longitude | Altitude | Speed | Heading |
|---|---|---|---|---|---|
| 2026-05-06 17:30 | 48.35637 | 11.79286 | 1473 ft | 6 kts | 263° |
| 2026-05-06 17:34 | 48.35637 | 11.79290 | 1473 ft | 3 kts | 263° |
| 2026-05-06 17:34 | 48.35641 | 11.79330 | 1457 ft | 5 kts | 261° |
| 2026-05-06 17:34 | 48.35646 | 11.79369 | 1461 ft | 5 kts | 253° |
| 2026-05-06 17:35 | 48.35656 | 11.79404 | 1461 ft | 5 kts | 226° |
| 2026-05-06 17:35 | 48.35670 | 11.79417 | 1461 ft | 2 kts | 174° |
| 2026-05-06 17:42 | 48.35668 | 11.79418 | 1473 ft | 3 kts | 174° |
| 2026-05-06 17:42 | 48.35619 | 11.79425 | 1466 ft | 10 kts | 174° |
| 2026-05-06 17:42 | 48.35538 | 11.79437 | 1467 ft | 13 kts | 174° |
| 2026-05-06 17:43 | 48.35441 | 11.79451 | 1462 ft | 15 kts | 174° |
| 2026-05-06 17:43 | 48.35334 | 11.79472 | 1468 ft | 16 kts | 172° |
| 2026-05-06 17:43 | 48.35215 | 11.79493 | 1469 ft | 18 kts | 173° |
| 2026-05-06 17:43 | 48.35089 | 11.79514 | 1471 ft | 19 kts | 173° |
| 2026-05-06 17:44 | 48.34956 | 11.79538 | 1469 ft | 20 kts | 173° |
| 2026-05-06 17:44 | 48.34824 | 11.79573 | 1463 ft | 18 kts | 152° |
| 2026-05-06 17:44 | 48.34796 | 11.79698 | 1467 ft | 11 kts | 83° |
| 2026-05-06 17:44 | 48.34807 | 11.79832 | 1467 ft | 14 kts | 83° |
| 2026-05-06 17:45 | 48.34821 | 11.79986 | 1473 ft | 16 kts | 82° |
| 2026-05-06 17:45 | 48.34836 | 11.80161 | 1465 ft | 18 kts | 83° |
| 2026-05-06 17:45 | 48.34810 | 11.80342 | 1461 ft | 18 kts | 130° |
| 2026-05-06 17:45 | 48.34701 | 11.80404 | 1461 ft | 18 kts | 173° |
| 2026-05-06 17:46 | 48.34653 | 11.80413 | 1464 ft | 0 kts | 173° |
| 2026-05-06 17:46 | 48.34628 | 11.80418 | 1462 ft | 14 kts | 173° |
| 2026-05-06 17:47 | 48.34479 | 11.80358 | 1462 ft | 14 kts | 230° |
| 2026-05-06 17:47 | 48.34464 | 11.80254 | 1464 ft | 21 kts | 263° |
| 2026-05-06 17:47 | 48.34417 | 11.79671 | 1468 ft | 97 kts | 263° |
| 2026-05-06 17:47 | 48.34302 | 11.78199 | 1590 ft | 181 kts | 257° |
| 2026-05-06 17:48 | 48.34103 | 11.76143 | 2575 ft | 210 kts | 261° |
| 2026-05-06 17:48 | 48.33951 | 11.74007 | 3776 ft | 200 kts | 265° |
| 2026-05-06 17:48 | 48.33831 | 11.71969 | 5038 ft | 200 kts | 262° |
| 2026-05-06 17:48 | 48.33513 | 11.69909 | 6149 ft | 207 kts | 244° |
| 2026-05-06 17:49 | 48.32457 | 11.68379 | 6827 ft | 223 kts | 207° |
| 2026-05-06 17:49 | 48.30895 | 11.68181 | 6994 ft | 235 kts | 170° |
| 2026-05-06 17:49 | 48.29393 | 11.69071 | 7002 ft | 230 kts | 162° |
| 2026-05-06 17:49 | 48.27980 | 11.70240 | 7006 ft | 239 kts | 148° |
| 2026-05-06 17:50 | 48.26700 | 11.72094 | 7013 ft | 272 kts | 136° |
| 2026-05-06 17:50 | 48.25374 | 11.74165 | 7012 ft | 276 kts | 141° |
| 2026-05-06 17:50 | 48.23867 | 11.75938 | 7008 ft | 275 kts | 150° |
| 2026-05-06 17:50 | 48.22243 | 11.77454 | 7065 ft | 275 kts | 152° |
| 2026-05-06 17:51 | 48.20624 | 11.79005 | 7857 ft | 275 kts | 150° |
| 2026-05-06 17:51 | 48.19036 | 11.80630 | 9404 ft | 278 kts | 149° |
| 2026-05-06 17:51 | 48.17541 | 11.82530 | 10788 ft | 289 kts | 133° |
| 2026-05-06 17:51 | 48.16299 | 11.84887 | 12086 ft | 295 kts | 134° |
| 2026-05-06 17:52 | 48.14964 | 11.87261 | 13403 ft | 301 kts | 134° |
| 2026-05-06 17:52 | 48.13619 | 11.89705 | 14566 ft | 308 kts | 132° |
| 2026-05-06 17:52 | 48.12328 | 11.92318 | 15717 ft | 316 kts | 129° |
| 2026-05-06 17:52 | 48.11047 | 11.95031 | 16853 ft | 322 kts | 129° |
| 2026-05-06 17:53 | 48.09716 | 11.97768 | 17972 ft | 328 kts | 130° |
| 2026-05-06 17:53 | 48.08343 | 12.00533 | 18933 ft | 334 kts | 131° |
| 2026-05-06 17:53 | 48.07421 | 12.02400 | 19576 ft | 338 kts | 131° |
| 2026-05-06 17:53 | 48.06007 | 12.05270 | 20390 ft | 350 kts | 131° |
| 2026-05-06 17:54 | 48.04533 | 12.08264 | 20946 ft | 368 kts | 131° |
| 2026-05-06 17:54 | 48.02974 | 12.11423 | 21394 ft | 387 kts | 131° |
| 2026-05-06 17:54 | 48.01303 | 12.14694 | 21834 ft | 400 kts | 137° |
| 2026-05-06 17:54 | 47.99383 | 12.17727 | 22560 ft | 406 kts | 139° |
| 2026-05-06 17:55 | 47.96794 | 12.21805 | 23542 ft | 411 kts | 141° |
| 2026-05-06 17:55 | 47.95426 | 12.23843 | 24016 ft | 415 kts | 137° |
| 2026-05-06 17:55 | 47.93693 | 12.27364 | 24709 ft | 426 kts | 127° |
| 2026-05-06 17:55 | 47.92190 | 12.31210 | 25352 ft | 432 kts | 124° |
| 2026-05-06 17:56 | 47.90697 | 12.35056 | 25960 ft | 436 kts | 127° |
| 2026-05-06 17:56 | 47.88972 | 12.38777 | 26429 ft | 439 kts | 132° |
| 2026-05-06 17:56 | 47.87065 | 12.42385 | 26591 ft | 450 kts | 133° |
| 2026-05-06 17:56 | 47.85140 | 12.46167 | 26611 ft | 466 kts | 130° |
| 2026-05-06 17:57 | 47.83266 | 12.50178 | 26783 ft | 477 kts | 129° |
| 2026-05-06 17:57 | 47.81348 | 12.54249 | 27105 ft | 482 kts | 130° |
| 2026-05-06 17:57 | 47.79355 | 12.58277 | 27531 ft | 484 kts | 131° |
| 2026-05-06 17:57 | 47.77347 | 12.62314 | 28021 ft | 486 kts | 131° |
| 2026-05-06 17:58 | 47.75366 | 12.66394 | 28552 ft | 487 kts | 131° |
| 2026-05-06 17:58 | 47.73391 | 12.70478 | 29105 ft | 487 kts | 131° |
| 2026-05-06 17:58 | 47.71427 | 12.74488 | 29661 ft | 486 kts | 133° |
| 2026-05-06 17:58 | 47.69427 | 12.78531 | 30192 ft | 485 kts | 134° |
| 2026-05-06 17:59 | 47.67272 | 12.82305 | 30728 ft | 475 kts | 142° |
| 2026-05-06 17:59 | 47.64955 | 12.85767 | 31264 ft | 473 kts | 142° |
| 2026-05-06 17:59 | 47.62623 | 12.89218 | 31702 ft | 474 kts | 143° |
| 2026-05-06 17:59 | 47.60262 | 12.92680 | 31833 ft | 483 kts | 142° |
| 2026-05-06 18:00 | 47.57860 | 12.96219 | 31945 ft | 491 kts | 142° |
| 2026-05-06 18:00 | 47.55430 | 12.99819 | 32113 ft | 497 kts | 142° |
| 2026-05-06 18:00 | 47.52974 | 13.03447 | 32305 ft | 500 kts | 142° |
| 2026-05-06 18:00 | 47.50500 | 13.07080 | 32573 ft | 502 kts | 142° |
| 2026-05-06 18:01 | 47.48023 | 13.10713 | 32748 ft | 501 kts | 142° |
| 2026-05-06 18:01 | 47.45566 | 13.14323 | 32775 ft | 496 kts | 142° |
| 2026-05-06 18:01 | 47.40672 | 13.21481 | 32766 ft | 495 kts | 142° |
| 2026-05-06 18:02 | 47.35805 | 13.28583 | 32796 ft | 496 kts | 142° |
| 2026-05-06 18:02 | 47.31371 | 13.36482 | 32804 ft | 512 kts | 128° |
| 2026-05-06 18:03 | 47.27703 | 13.45452 | 32801 ft | 510 kts | 128° |
| 2026-05-06 18:03 | 47.24050 | 13.54409 | 32827 ft | 511 kts | 128° |
| 2026-05-06 18:04 | 47.20404 | 13.63286 | 32826 ft | 510 kts | 128° |
| 2026-05-06 18:04 | 47.16711 | 13.72259 | 32827 ft | 512 kts | 128° |
| 2026-05-06 18:05 | 47.12997 | 13.81260 | 32851 ft | 517 kts | 127° |
| 2026-05-06 18:05 | 47.09264 | 13.90273 | 32852 ft | 517 kts | 127° |
| 2026-05-06 18:06 | 47.05545 | 13.99222 | 32850 ft | 517 kts | 127° |
| 2026-05-06 18:06 | 47.01796 | 14.08212 | 32829 ft | 517 kts | 127° |
| 2026-05-06 18:07 | 46.98014 | 14.17249 | 32864 ft | 522 kts | 127° |
| 2026-05-06 18:07 | 46.94208 | 14.26325 | 32860 ft | 525 kts | 127° |
| 2026-05-06 18:08 | 46.90364 | 14.35449 | 32859 ft | 528 kts | 127° |
| 2026-05-06 18:08 | 46.86516 | 14.44563 | 32852 ft | 526 kts | 127° |
| 2026-05-06 18:09 | 46.82684 | 14.53595 | 32850 ft | 526 kts | 126° |
| 2026-05-06 18:09 | 46.78824 | 14.62675 | 32854 ft | 527 kts | 127° |
| 2026-05-06 18:10 | 46.74949 | 14.71755 | 33056 ft | 527 kts | 127° |
| 2026-05-06 18:10 | 46.73008 | 14.76293 | 33520 ft | 526 kts | 127° |
| 2026-05-06 18:10 | 46.71072 | 14.80812 | 33955 ft | 526 kts | 127° |
| 2026-05-06 18:11 | 46.69136 | 14.85324 | 34363 ft | 525 kts | 127° |
| 2026-05-06 18:11 | 46.67224 | 14.89773 | 34735 ft | 525 kts | 127° |
| 2026-05-06 18:11 | 46.65287 | 14.94272 | 35134 ft | 524 kts | 127° |
| 2026-05-06 18:11 | 46.63353 | 14.98756 | 35544 ft | 524 kts | 127° |
| 2026-05-06 18:12 | 46.61417 | 15.03238 | 35962 ft | 523 kts | 127° |
| 2026-05-06 18:12 | 46.59482 | 15.07708 | 36362 ft | 522 kts | 126° |
| 2026-05-06 18:12 | 46.57546 | 15.12177 | 36715 ft | 522 kts | 126° |
| 2026-05-06 18:12 | 46.55607 | 15.16646 | 37101 ft | 522 kts | 126° |
| 2026-05-06 18:13 | 46.53664 | 15.21115 | 37460 ft | 522 kts | 127° |
| 2026-05-06 18:13 | 46.51724 | 15.25571 | 37831 ft | 522 kts | 127° |
| 2026-05-06 18:13 | 46.49808 | 15.29963 | 38203 ft | 522 kts | 127° |
| 2026-05-06 18:13 | 46.47868 | 15.34403 | 38549 ft | 521 kts | 127° |
| 2026-05-06 18:14 | 46.45925 | 15.38845 | 38822 ft | 521 kts | 127° |
| 2026-05-06 18:14 | 46.43988 | 15.43267 | 38874 ft | 518 kts | 127° |
| 2026-05-06 18:14 | 46.40139 | 15.52030 | 38874 ft | 513 kts | 127° |
| 2026-05-06 18:15 | 46.36301 | 15.60736 | 38885 ft | 513 kts | 127° |
| 2026-05-06 18:15 | 46.32486 | 15.69369 | 38894 ft | 513 kts | 127° |
| 2026-05-06 18:16 | 46.28631 | 15.78061 | 38887 ft | 513 kts | 127° |
| 2026-05-06 18:16 | 46.25122 | 15.87061 | 38906 ft | 518 kts | 120° |
| 2026-05-06 18:17 | 46.21968 | 15.96409 | 38904 ft | 518 kts | 120° |
| 2026-05-06 18:17 | 46.18840 | 16.05695 | 38905 ft | 518 kts | 120° |
| 2026-05-06 18:18 | 46.15673 | 16.15035 | 38892 ft | 517 kts | 119° |
| 2026-05-06 18:18 | 46.12510 | 16.24345 | 38902 ft | 517 kts | 120° |
| 2026-05-06 18:19 | 46.09339 | 16.33640 | 38895 ft | 517 kts | 120° |
| 2026-05-06 18:19 | 46.06161 | 16.42924 | 38908 ft | 517 kts | 120° |
| 2026-05-06 18:20 | 46.02992 | 16.52149 | 38899 ft | 518 kts | 120° |
| 2026-05-06 18:20 | 45.99794 | 16.61427 | 38904 ft | 518 kts | 120° |
| 2026-05-06 18:21 | 45.96586 | 16.70701 | 38911 ft | 518 kts | 120° |
| 2026-05-06 18:21 | 45.93370 | 16.79965 | 38913 ft | 518 kts | 120° |
| 2026-05-06 18:22 | 45.90158 | 16.89182 | 38912 ft | 522 kts | 120° |
| 2026-05-06 18:22 | 45.86908 | 16.98484 | 38918 ft | 521 kts | 120° |
| 2026-05-06 18:23 | 45.83652 | 17.07765 | 38916 ft | 521 kts | 120° |
| 2026-05-06 18:23 | 45.80386 | 17.17043 | 38933 ft | 521 kts | 120° |
| 2026-05-06 18:24 | 45.77134 | 17.26248 | 38933 ft | 521 kts | 120° |
| 2026-05-06 18:24 | 45.73855 | 17.35502 | 38937 ft | 521 kts | 120° |
| 2026-05-06 18:25 | 45.70566 | 17.44748 | 38935 ft | 521 kts | 120° |
| 2026-05-06 18:25 | 45.67267 | 17.53991 | 38929 ft | 522 kts | 120° |
| 2026-05-06 18:26 | 45.63982 | 17.63165 | 38924 ft | 522 kts | 120° |
| 2026-05-06 18:26 | 45.60669 | 17.72386 | 38925 ft | 522 kts | 120° |
| 2026-05-06 18:27 | 45.57350 | 17.81590 | 38922 ft | 522 kts | 120° |
| 2026-05-06 18:27 | 45.54021 | 17.90791 | 38919 ft | 523 kts | 120° |
| 2026-05-06 18:28 | 45.50676 | 18.00004 | 38921 ft | 523 kts | 120° |
| 2026-05-06 18:28 | 45.47349 | 18.09139 | 38918 ft | 523 kts | 121° |
| 2026-05-06 18:29 | 45.43995 | 18.18316 | 38925 ft | 522 kts | 121° |
| 2026-05-06 18:29 | 45.40629 | 18.27492 | 38923 ft | 522 kts | 121° |
| 2026-05-06 18:30 | 45.37261 | 18.36647 | 38920 ft | 522 kts | 121° |
| 2026-05-06 18:30 | 45.33905 | 18.45736 | 38920 ft | 522 kts | 121° |
| 2026-05-06 18:31 | 45.30527 | 18.54854 | 38920 ft | 521 kts | 121° |
| 2026-05-06 18:31 | 45.27142 | 18.63957 | 38920 ft | 521 kts | 122° |
| 2026-05-06 18:32 | 45.23610 | 18.72923 | 38928 ft | 521 kts | 122° |
| 2026-05-06 18:32 | 45.20125 | 18.81843 | 38895 ft | 520 kts | 123° |
| 2026-05-06 18:33 | 45.16596 | 18.90711 | 38906 ft | 515 kts | 122° |
| 2026-05-06 18:33 | 45.13103 | 18.99557 | 38909 ft | 514 kts | 122° |
| 2026-05-06 18:34 | 45.09584 | 19.08377 | 38910 ft | 515 kts | 122° |
| 2026-05-06 18:34 | 45.06092 | 19.17142 | 38909 ft | 515 kts | 122° |
| 2026-05-06 18:35 | 45.02563 | 19.25947 | 38910 ft | 515 kts | 122° |
| 2026-05-06 18:35 | 44.99029 | 19.34751 | 38909 ft | 515 kts | 123° |
| 2026-05-06 18:36 | 44.95486 | 19.43541 | 38904 ft | 515 kts | 123° |
| 2026-05-06 18:36 | 44.91955 | 19.52281 | 38913 ft | 511 kts | 123° |
| 2026-05-06 18:37 | 44.88449 | 19.60924 | 38916 ft | 511 kts | 123° |
| 2026-05-06 18:37 | 44.84916 | 19.69615 | 38915 ft | 511 kts | 123° |
| 2026-05-06 18:38 | 44.81369 | 19.78309 | 38908 ft | 514 kts | 123° |
| 2026-05-06 18:38 | 44.77805 | 19.87017 | 38910 ft | 513 kts | 123° |
| 2026-05-06 18:39 | 44.74238 | 19.95708 | 38913 ft | 513 kts | 123° |
| 2026-05-06 18:40 | 44.68894 | 20.08678 | 38909 ft | 513 kts | 123° |
| 2026-05-06 18:40 | 44.65306 | 20.17353 | 38908 ft | 514 kts | 123° |
| 2026-05-06 18:41 | 44.61708 | 20.26023 | 38910 ft | 514 kts | 123° |
| 2026-05-06 18:41 | 44.58129 | 20.34623 | 38911 ft | 514 kts | 123° |
| 2026-05-06 18:42 | 44.54520 | 20.43270 | 38928 ft | 515 kts | 123° |
| 2026-05-06 18:42 | 44.50897 | 20.51922 | 38931 ft | 514 kts | 123° |
| 2026-05-06 18:43 | 44.47272 | 20.60554 | 38933 ft | 514 kts | 123° |
| 2026-05-06 18:43 | 44.43655 | 20.69139 | 38919 ft | 515 kts | 123° |
| 2026-05-06 18:44 | 44.40005 | 20.77778 | 38917 ft | 516 kts | 123° |
| 2026-05-06 18:44 | 44.36345 | 20.86413 | 38919 ft | 516 kts | 123° |
| 2026-05-06 18:45 | 44.32677 | 20.95042 | 38919 ft | 516 kts | 123° |
| 2026-05-06 18:45 | 44.29021 | 21.03613 | 38922 ft | 519 kts | 123° |
| 2026-05-06 18:46 | 44.25332 | 21.12245 | 38925 ft | 518 kts | 123° |
| 2026-05-06 18:46 | 44.21633 | 21.20866 | 38925 ft | 518 kts | 123° |
| 2026-05-06 18:47 | 44.17924 | 21.29486 | 38927 ft | 518 kts | 122° |
| 2026-05-06 18:47 | 44.14237 | 21.38030 | 38928 ft | 518 kts | 122° |
| 2026-05-06 18:48 | 44.10519 | 21.46621 | 38935 ft | 518 kts | 123° |
| 2026-05-06 18:48 | 44.06787 | 21.55217 | 38947 ft | 519 kts | 123° |
| 2026-05-06 18:49 | 44.03051 | 21.63798 | 38953 ft | 519 kts | 122° |
| 2026-05-06 18:49 | 43.99308 | 21.72369 | 38953 ft | 519 kts | 123° |
| 2026-05-06 18:50 | 43.95584 | 21.80871 | 38953 ft | 519 kts | 123° |
| 2026-05-06 18:50 | 43.91824 | 21.89427 | 38958 ft | 520 kts | 122° |
| 2026-05-06 18:51 | 43.88054 | 21.97987 | 38955 ft | 520 kts | 122° |
| 2026-05-06 18:51 | 43.84275 | 22.06536 | 38952 ft | 520 kts | 122° |
| 2026-05-06 18:52 | 43.80517 | 22.15015 | 38955 ft | 520 kts | 123° |
| 2026-05-06 18:52 | 43.76722 | 22.23553 | 38956 ft | 520 kts | 123° |
| 2026-05-06 18:53 | 43.72924 | 22.32073 | 38957 ft | 521 kts | 123° |
| 2026-05-06 18:53 | 43.69116 | 22.40589 | 38957 ft | 520 kts | 122° |
| 2026-05-06 18:54 | 43.65794 | 22.49397 | 38969 ft | 522 kts | 117° |
| 2026-05-06 18:54 | 43.62525 | 22.58338 | 38976 ft | 522 kts | 117° |
| 2026-05-06 18:55 | 43.59236 | 22.67267 | 38980 ft | 522 kts | 117° |
| 2026-05-06 18:55 | 43.55949 | 22.76187 | 38983 ft | 522 kts | 117° |
| 2026-05-06 18:56 | 43.52656 | 22.85079 | 38986 ft | 524 kts | 117° |
| 2026-05-06 18:56 | 43.49337 | 22.94024 | 38980 ft | 524 kts | 117° |
| 2026-05-06 18:57 | 43.46013 | 23.02947 | 38990 ft | 524 kts | 117° |
| 2026-05-06 18:57 | 43.42675 | 23.11880 | 38987 ft | 525 kts | 117° |
| 2026-05-06 18:58 | 43.39328 | 23.20810 | 38984 ft | 525 kts | 117° |
| 2026-05-06 18:58 | 43.36008 | 23.29640 | 38979 ft | 522 kts | 117° |
| 2026-05-06 18:59 | 43.32663 | 23.38506 | 38981 ft | 524 kts | 117° |
| 2026-05-06 18:59 | 43.29303 | 23.47386 | 38975 ft | 524 kts | 117° |
| 2026-05-06 19:00 | 43.25938 | 23.56252 | 38971 ft | 524 kts | 117° |
| 2026-05-06 19:00 | 43.22586 | 23.65055 | 38969 ft | 524 kts | 117° |
| 2026-05-06 19:01 | 43.19195 | 23.73933 | 38971 ft | 525 kts | 118° |
| 2026-05-06 19:01 | 43.15802 | 23.82787 | 38972 ft | 525 kts | 118° |
| 2026-05-06 19:02 | 43.12400 | 23.91638 | 38976 ft | 525 kts | 118° |
| 2026-05-06 19:02 | 43.08987 | 24.00492 | 38984 ft | 525 kts | 117° |
| 2026-05-06 19:03 | 43.05596 | 24.09260 | 38983 ft | 526 kts | 117° |
| 2026-05-06 19:03 | 43.02171 | 24.18087 | 38984 ft | 525 kts | 117° |
| 2026-05-06 19:04 | 42.98737 | 24.26912 | 38995 ft | 526 kts | 117° |
| 2026-05-06 19:04 | 42.95297 | 24.35725 | 38991 ft | 526 kts | 117° |
| 2026-05-06 19:05 | 42.91873 | 24.44471 | 38999 ft | 526 kts | 117° |
| 2026-05-06 19:05 | 42.88415 | 24.53273 | 39008 ft | 526 kts | 117° |
| 2026-05-06 19:06 | 42.84951 | 24.62069 | 38989 ft | 526 kts | 117° |
| 2026-05-06 19:06 | 42.81480 | 24.70854 | 38990 ft | 527 kts | 117° |
| 2026-05-06 19:07 | 42.77997 | 24.79645 | 38996 ft | 527 kts | 117° |
| 2026-05-06 19:07 | 42.74537 | 24.88350 | 39007 ft | 527 kts | 117° |
| 2026-05-06 19:08 | 42.71044 | 24.97113 | 39013 ft | 526 kts | 117° |
| 2026-05-06 19:08 | 42.67547 | 25.05859 | 39015 ft | 526 kts | 117° |
| 2026-05-06 19:09 | 42.64043 | 25.14596 | 39017 ft | 527 kts | 117° |
| 2026-05-06 19:09 | 42.60556 | 25.23264 | 39016 ft | 527 kts | 117° |
| 2026-05-06 19:10 | 42.57039 | 25.31983 | 39016 ft | 527 kts | 117° |
| 2026-05-06 19:10 | 42.53513 | 25.40693 | 39017 ft | 528 kts | 117° |
| 2026-05-06 19:11 | 42.49974 | 25.49416 | 39019 ft | 528 kts | 117° |
| 2026-05-06 19:11 | 42.46454 | 25.58060 | 39017 ft | 528 kts | 117° |
| 2026-05-06 19:12 | 42.42903 | 25.66757 | 39021 ft | 528 kts | 117° |
| 2026-05-06 19:12 | 42.39344 | 25.75447 | 39022 ft | 528 kts | 117° |
| 2026-05-06 19:13 | 42.35777 | 25.84131 | 39014 ft | 528 kts | 117° |
| 2026-05-06 19:13 | 42.32227 | 25.92747 | 39025 ft | 528 kts | 117° |
| 2026-05-06 19:14 | 42.28644 | 26.01420 | 39028 ft | 529 kts | 117° |
| 2026-05-06 19:14 | 42.25049 | 26.10094 | 39029 ft | 529 kts | 117° |
| 2026-05-06 19:15 | 42.21449 | 26.18754 | 39034 ft | 529 kts | 117° |
| 2026-05-06 19:15 | 42.17834 | 26.27423 | 39031 ft | 530 kts | 117° |
| 2026-05-06 19:16 | 42.14236 | 26.36027 | 39032 ft | 530 kts | 117° |
| 2026-05-06 19:16 | 42.10605 | 26.44685 | 39031 ft | 531 kts | 117° |
| 2026-05-06 19:17 | 42.06960 | 26.53351 | 38669 ft | 531 kts | 117° |
| 2026-05-06 19:17 | 42.05151 | 26.57639 | 38244 ft | 523 kts | 117° |
| 2026-05-06 19:17 | 42.03364 | 26.61871 | 37819 ft | 519 kts | 117° |
| 2026-05-06 19:17 | 42.01586 | 26.66081 | 37401 ft | 517 kts | 117° |
| 2026-05-06 19:18 | 41.99807 | 26.70284 | 36996 ft | 517 kts | 117° |
| 2026-05-06 19:18 | 41.98050 | 26.74428 | 36618 ft | 519 kts | 117° |
| 2026-05-06 19:18 | 41.96255 | 26.78652 | 36240 ft | 522 kts | 117° |
| 2026-05-06 19:18 | 41.95060 | 26.81464 | 36004 ft | 523 kts | 117° |